Pettit, Texas
Current Conditions -  °F | °C
As of 1:53 AM on Sunday 26 Oct 2014 (Local Time) from KLBB Reporting Station
Clear Clear  
Wind Chill: 67°   Ceiling: Unl
Heat Index: 67°   Visibility: 10mi
Dew Point: 49°   Wind: 17mph
Humidity: 52%   Direction: 200°SSW
Pressure: 30.06"   Gusts: 24mph
Location:  33.6122°N, 102.39°W
Report Text: KLBB 260653Z 20015G21KT 10SM CLR 19/09 A3006 RMK AO2 SLP131 T01940094 $
Loading
Personal Weather Stations






























Interactive Weather Map
Tropical Storm Tracking
New forecast layout! Learn more

10-Day Weather Forecast

Advertisements
Track Severe Weather on mobile